createdAt,value
2023-02-05T00:01:35.131Z,102439.84
2023-02-05T00:04:02.332Z,102445.06
2023-02-05T00:06:29.217Z,102444.03
2023-02-05T00:08:57.580Z,102447.31
2023-02-05T00:11:24.806Z,102442.88
2023-02-05T00:13:51.955Z,102440.03
2023-02-05T00:16:22.976Z,102436.97
2023-02-05T00:18:50.403Z,102432.44
2023-02-05T00:21:18.669Z,102432.28
2023-02-05T00:23:46.558Z,102432.31
2023-02-05T00:26:14.321Z,102430.69
2023-02-05T00:28:42.138Z,102439.22
2023-02-05T00:31:16.286Z,102434.16
2023-02-05T00:33:44.216Z,102433.47
2023-02-05T00:36:13.071Z,102431.91
2023-02-05T00:38:41.151Z,102428.31
2023-02-05T00:41:08.898Z,102429.47
2023-02-05T00:43:35.880Z,102418.63
2023-02-05T00:46:02.847Z,102419.06
2023-02-05T00:48:29.917Z,102418.31
2023-02-05T00:50:57.108Z,102424.25
2023-02-05T00:53:26.985Z,102424.09
2023-02-05T00:55:54.149Z,102426.63
2023-02-05T00:58:21.655Z,102428.94
2023-02-05T01:00:51.014Z,102433.06
2023-02-05T01:03:19.428Z,102424.06
2023-02-05T01:05:46.904Z,102427.63
2023-02-05T01:08:14.861Z,102425.69
2023-02-05T01:10:49.922Z,102429.78
2023-02-05T01:13:18.734Z,102424.38
2023-02-05T01:15:46.276Z,102413.00
2023-02-05T01:18:13.583Z,102411.72
2023-02-05T01:20:42.105Z,102402.13
2023-02-05T01:23:10.037Z,102398.38
2023-02-05T01:25:38.033Z,102390.81
2023-02-05T01:28:06.822Z,102384.31
2023-02-05T01:30:34.814Z,102384.31
2023-02-05T01:33:02.958Z,102389.28
2023-02-05T01:35:29.878Z,102388.34
2023-02-05T01:37:56.956Z,102382.84
2023-02-05T01:40:23.918Z,102365.94
2023-02-05T01:42:50.944Z,102365.38
2023-02-05T01:45:23.660Z,102359.75
2023-02-05T01:47:57.180Z,102358.53
2023-02-05T01:50:31.980Z,102368.72
2023-02-05T01:53:03.460Z,102365.97
2023-02-05T01:55:31.809Z,102364.72
2023-02-05T01:58:00.540Z,102371.88
2023-02-05T02:00:27.550Z,102375.91
2023-02-05T02:02:54.504Z,102363.91
2023-02-05T02:05:21.457Z,102368.75
2023-02-05T02:07:48.496Z,102367.47
2023-02-05T02:10:18.315Z,102367.13
2023-02-05T02:12:47.910Z,102357.59
2023-02-05T02:15:21.856Z,102362.53
2023-02-05T02:18:17.621Z,102356.25
2023-02-05T02:20:45.117Z,102352.94
2023-02-05T02:23:15.006Z,102328.00
2023-02-05T02:26:03.117Z,102331.47
2023-02-05T02:28:36.060Z,102309.41
2023-02-05T02:31:09.655Z,102298.88
2023-02-05T02:33:42.721Z,102304.69
2023-02-05T02:36:34.973Z,102315.66
2023-02-05T02:39:34.271Z,102311.78
2023-02-05T02:42:14.590Z,102306.47
2023-02-05T02:44:47.888Z,102324.16
2023-02-05T02:47:29.354Z,102322.94
2023-02-05T02:50:35.366Z,102325.72
2023-02-05T02:53:25.520Z,102343.03
2023-02-05T02:55:55.954Z,102352.44
2023-02-05T02:58:39.379Z,102341.56
2023-02-05T03:01:09.110Z,102335.53
2023-02-05T03:03:41.099Z,102337.31
2023-02-05T03:06:11.912Z,102330.22
2023-02-05T03:09:03.520Z,102321.84
2023-02-05T03:11:30.615Z,102325.75
2023-02-05T03:13:57.922Z,102304.69
2023-02-05T03:16:27.233Z,102292.41
2023-02-05T03:18:55.928Z,102284.22
2023-02-05T03:21:39.781Z,102282.50
2023-02-05T03:24:08.170Z,102278.13
2023-02-05T03:26:36.232Z,102273.81
2023-02-05T03:29:09.082Z,102271.53
2023-02-05T03:31:40.656Z,102260.56
2023-02-05T03:35:07.585Z,102265.16
2023-02-05T03:38:19.149Z,102274.88
2023-02-05T03:41:10.526Z,102268.91
2023-02-05T03:43:39.986Z,102263.38
2023-02-05T03:46:22.776Z,102260.88
2023-02-05T03:49:44.375Z,102257.41
2023-02-05T03:52:17.891Z,102264.84
2023-02-05T03:54:59.593Z,102267.56
2023-02-05T03:57:46.329Z,102272.78
2023-02-05T04:00:14.220Z,102272.94
2023-02-05T04:02:42.752Z,102266.84
2023-02-05T04:05:09.705Z,102264.84
2023-02-05T04:07:36.648Z,102263.03
2023-02-05T04:10:03.892Z,102273.22
2023-02-05T04:12:30.804Z,102268.09
2023-02-05T04:14:57.772Z,102263.84
2023-02-05T04:17:24.698Z,102274.72
2023-02-05T04:19:51.584Z,102284.97
2023-02-05T04:22:18.443Z,102277.09
2023-02-05T04:24:45.336Z,102273.94
2023-02-05T04:27:12.290Z,102278.63
2023-02-05T04:29:39.248Z,102284.28
2023-02-05T04:32:06.147Z,102302.03
2023-02-05T04:34:33.032Z,102295.22
2023-02-05T04:36:59.903Z,102296.19
2023-02-05T04:39:27.825Z,102299.31
2023-02-05T04:41:54.749Z,102291.78
2023-02-05T04:44:21.753Z,102315.41
2023-02-05T04:46:48.689Z,102310.44
2023-02-05T04:49:16.494Z,102301.25
2023-02-05T04:51:43.427Z,102314.41
2023-02-05T04:54:10.455Z,102304.59
2023-02-05T04:56:38.906Z,102301.63
2023-02-05T04:59:05.832Z,102293.53
2023-02-05T05:01:32.915Z,102289.09
2023-02-05T05:03:59.796Z,102286.75
2023-02-05T05:06:26.715Z,102276.50
2023-02-05T05:08:54.788Z,102275.38
2023-02-05T05:11:21.801Z,102264.91
2023-02-05T05:13:52.240Z,102271.25
2023-02-05T05:16:19.345Z,102284.63
2023-02-05T05:18:46.330Z,102285.34
2023-02-05T05:21:13.486Z,102272.19
2023-02-05T05:23:40.389Z,102261.97
2023-02-05T05:26:11.862Z,102258.56
2023-02-05T05:28:39.315Z,102256.81
2023-02-05T05:31:14.014Z,102265.31
2023-02-05T05:33:41.011Z,102261.94
2023-02-05T05:36:09.235Z,102263.53
2023-02-05T05:38:36.147Z,102263.16
2023-02-05T05:41:22.572Z,102255.06
2023-02-05T05:43:52.184Z,102263.81
2023-02-05T05:46:23.623Z,102267.00
2023-02-05T05:48:56.652Z,102265.59
2023-02-05T05:51:25.814Z,102274.22
2023-02-05T05:53:53.146Z,102268.66
2023-02-05T05:56:20.759Z,102268.13
2023-02-05T05:58:48.795Z,102265.56
2023-02-05T06:01:19.088Z,102259.31
2023-02-05T06:03:46.126Z,102265.38
2023-02-05T06:06:13.759Z,102265.44
2023-02-05T06:08:41.031Z,102260.06
2023-02-05T06:11:07.934Z,102266.88
2023-02-05T06:13:34.959Z,102256.28
2023-02-05T06:16:02.410Z,102255.47
2023-02-05T06:18:29.855Z,102248.19
2023-02-05T06:20:56.835Z,102258.03
2023-02-05T06:23:24.059Z,102254.72
2023-02-05T06:25:51.080Z,102261.06
2023-02-05T06:28:18.104Z,102267.81
2023-02-05T06:30:45.165Z,102271.97
2023-02-05T06:33:12.782Z,102273.59
2023-02-05T06:35:41.276Z,102280.00
2023-02-05T06:38:09.287Z,102286.31
2023-02-05T06:40:36.377Z,102291.47
2023-02-05T06:43:03.581Z,102275.75
2023-02-05T06:45:30.499Z,102263.78
2023-02-05T06:47:58.259Z,102276.88
2023-02-05T06:50:25.844Z,102278.28
2023-02-05T06:52:53.057Z,102280.34
2023-02-05T06:55:20.193Z,102272.09
2023-02-05T06:57:47.077Z,102259.44
2023-02-05T07:00:15.279Z,102261.31
2023-02-05T07:02:42.388Z,102254.13
2023-02-05T07:05:09.789Z,102263.81
2023-02-05T07:07:36.888Z,102260.94
2023-02-05T07:10:04.632Z,102266.59
2023-02-05T07:12:32.095Z,102262.31
2023-02-05T07:14:59.164Z,102258.53
2023-02-05T07:17:26.340Z,102257.88
2023-02-05T07:19:53.347Z,102267.59
2023-02-05T07:22:20.316Z,102268.56
2023-02-05T07:24:47.217Z,102263.47
2023-02-05T07:27:14.160Z,102257.19
2023-02-05T07:29:41.096Z,102264.47
2023-02-05T07:32:08.087Z,102263.66
2023-02-05T07:34:35.204Z,102262.53
2023-02-05T07:37:02.209Z,102273.72
2023-02-05T07:39:29.195Z,102260.00
2023-02-05T07:41:56.127Z,102261.38
2023-02-05T07:44:22.992Z,102267.13
2023-02-05T07:46:50.103Z,102261.53
2023-02-05T07:49:17.340Z,102262.81
2023-02-05T07:51:44.337Z,102274.47
2023-02-05T07:54:15.964Z,102268.63
2023-02-05T07:56:43.189Z,102262.38
2023-02-05T07:59:12.963Z,102254.63
2023-02-05T08:01:40.034Z,102245.19
2023-02-05T08:04:07.049Z,102250.84
2023-02-05T08:06:34.931Z,102251.56
2023-02-05T08:09:02.344Z,102252.50
2023-02-05T08:11:30.713Z,102241.44
2023-02-05T08:13:59.301Z,102245.94
2023-02-05T08:16:26.292Z,102233.59
2023-02-05T08:18:53.285Z,102221.22
2023-02-05T08:21:21.786Z,102236.47
2023-02-05T08:23:49.616Z,102233.44
2023-02-05T08:26:18.164Z,102241.19
2023-02-05T08:28:46.070Z,102240.72
2023-02-05T08:31:17.377Z,102235.38
2023-02-05T08:33:45.863Z,102237.47
2023-02-05T08:36:12.845Z,102239.94
2023-02-05T08:38:39.694Z,102238.38
2023-02-05T08:41:12.725Z,102231.13
2023-02-05T08:43:46.378Z,102230.81
2023-02-05T08:46:19.175Z,102231.63
2023-02-05T08:48:47.363Z,102221.84
2023-02-05T08:51:15.887Z,102219.41
2023-02-05T08:53:43.195Z,102216.13
2023-02-05T08:56:10.745Z,102218.50
2023-02-05T08:58:38.951Z,102209.78
2023-02-05T09:01:17.114Z,102200.50
2023-02-05T09:03:45.473Z,102202.06
2023-02-05T09:06:15.833Z,102195.59
2023-02-05T09:08:43.016Z,102193.66
2023-02-05T09:11:10.051Z,102196.91
2023-02-05T09:13:37.146Z,102193.25
2023-02-05T09:16:04.449Z,102200.91
2023-02-05T09:18:31.337Z,102199.19
2023-02-05T09:20:58.280Z,102182.63
2023-02-05T09:23:25.214Z,102176.75
2023-02-05T09:25:52.331Z,102183.47
2023-02-05T09:28:19.308Z,102172.97
2023-02-05T09:30:46.866Z,102173.75
2023-02-05T09:33:14.411Z,102160.97
2023-02-05T09:35:42.157Z,102143.22
2023-02-05T09:38:13.034Z,102158.53
2023-02-05T09:41:05.529Z,102187.03
2023-02-05T09:43:55.773Z,102193.25
2023-02-05T09:47:05.613Z,102201.47
2023-02-05T09:49:41.544Z,102201.94
2023-02-05T09:52:20.133Z,102198.59
2023-02-05T09:54:57.685Z,102194.50
2023-02-05T09:57:36.372Z,102190.06
2023-02-05T10:00:21.477Z,102188.94
2023-02-05T10:03:18.630Z,102183.59
2023-02-05T10:06:23.044Z,102186.59
2023-02-05T10:09:04.829Z,102181.47
2023-02-05T10:11:57.154Z,102174.22
2023-02-05T10:15:08.458Z,102166.44
2023-02-05T10:17:56.129Z,102165.41
2023-02-05T10:20:33.834Z,102151.72
2023-02-05T10:23:16.878Z,102162.84
2023-02-05T10:26:25.257Z,102157.28
2023-02-05T10:29:18.352Z,102153.81
2023-02-05T10:32:32.816Z,102148.66
2023-02-05T10:35:18.868Z,102145.28
2023-02-05T10:37:52.809Z,102148.72
2023-02-05T10:40:43.470Z,102142.06
2023-02-05T10:43:30.186Z,102140.13
2023-02-05T10:45:58.698Z,102144.41
2023-02-05T10:48:48.881Z,102136.59
2023-02-05T10:51:18.073Z,102141.81
2023-02-05T10:53:45.011Z,102146.63
2023-02-05T10:56:18.843Z,102144.47
2023-02-05T10:58:59.226Z,102131.94
2023-02-05T11:01:38.025Z,102123.22
2023-02-05T11:04:14.189Z,102120.53
2023-02-05T11:06:52.490Z,102115.88
2023-02-05T11:09:25.485Z,102116.66
2023-02-05T11:12:05.886Z,102102.34
2023-02-05T11:14:39.950Z,102097.97
2023-02-05T11:17:24.571Z,102108.97
2023-02-05T11:19:57.208Z,102098.84
2023-02-05T11:22:33.170Z,102088.94
2023-02-05T11:25:27.091Z,102093.00
2023-02-05T11:27:56.601Z,102098.34
2023-02-05T11:30:53.243Z,102096.78
2023-02-05T11:33:23.146Z,102102.59
2023-02-05T11:36:03.118Z,102095.25
2023-02-05T11:38:50.422Z,102094.72
2023-02-05T11:41:52.020Z,102090.94
2023-02-05T11:44:31.980Z,102084.41
2023-02-05T11:47:01.602Z,102085.94
2023-02-05T11:49:38.473Z,102083.50
2023-02-05T11:52:13.520Z,102086.53
2023-02-05T11:54:45.991Z,102091.94
2023-02-05T11:57:21.678Z,102090.84
2023-02-05T12:00:09.740Z,102083.75
2023-02-05T12:02:42.066Z,102082.69
2023-02-05T12:05:25.062Z,102086.94
2023-02-05T12:08:19.728Z,102083.22
2023-02-05T12:11:28.671Z,102081.03
2023-02-05T12:14:18.906Z,102083.59
2023-02-05T12:16:51.843Z,102074.09
2023-02-05T12:19:50.282Z,102076.53
2023-02-05T12:22:26.884Z,102069.53
2023-02-05T12:25:50.292Z,102066.66
2023-02-05T12:28:42.068Z,102058.38
2023-02-05T12:31:49.903Z,102052.59
2023-02-05T12:34:48.106Z,102041.91
2023-02-05T12:37:36.349Z,102043.88
2023-02-05T12:40:13.122Z,102033.84
2023-02-05T12:43:27.417Z,102026.97
2023-02-05T12:46:05.972Z,102026.03
2023-02-05T12:48:54.192Z,102024.59
2023-02-05T12:51:31.437Z,102021.25
2023-02-05T12:54:35.076Z,102014.16
2023-02-05T12:57:13.802Z,102006.75
2023-02-05T12:59:51.961Z,102010.19
2023-02-05T13:02:46.705Z,102018.56
2023-02-05T13:05:24.923Z,102015.59
2023-02-05T13:08:02.609Z,102017.72
2023-02-05T13:10:54.380Z,102015.19
2023-02-05T13:13:35.137Z,102006.59
2023-02-05T13:16:09.649Z,102010.09
2023-02-05T13:18:47.716Z,102021.25
2023-02-05T13:21:37.851Z,102018.34
2023-02-05T13:24:50.325Z,102005.22
2023-02-05T13:27:51.106Z,102012.56
2023-02-05T13:30:39.264Z,102012.16
2023-02-05T13:33:08.733Z,102014.72
2023-02-05T13:36:27.294Z,102007.31
2023-02-05T13:39:34.603Z,102014.91
2023-02-05T13:42:28.499Z,102004.31
2023-02-05T13:45:11.213Z,102012.63
2023-02-05T13:47:56.700Z,102010.66
2023-02-05T13:51:10.892Z,102000.50
2023-02-05T13:54:24.282Z,101993.41
2023-02-05T13:57:36.234Z,101996.84
2023-02-05T14:00:05.677Z,101994.28
2023-02-05T14:02:44.513Z,101992.78
2023-02-05T14:05:13.699Z,101991.66
2023-02-05T14:07:50.904Z,101983.72
2023-02-05T14:10:35.150Z,101986.31
2023-02-05T14:13:32.574Z,101996.03
2023-02-05T14:16:28.012Z,101995.13
2023-02-05T14:19:01.097Z,101998.13
2023-02-05T14:21:30.978Z,101998.53
2023-02-05T14:24:03.612Z,102000.47
2023-02-05T14:26:56.614Z,102000.91
2023-02-05T14:29:45.090Z,102001.59
2023-02-05T14:32:31.373Z,101995.94
2023-02-05T14:35:32.488Z,101998.88
2023-02-05T14:38:03.332Z,102005.72
2023-02-05T14:40:38.332Z,102006.47
2023-02-05T14:43:16.933Z,102010.66
2023-02-05T14:45:50.490Z,102015.91
2023-02-05T14:48:47.193Z,102010.44
2023-02-05T14:51:28.289Z,102006.28
2023-02-05T14:54:21.532Z,102014.84
2023-02-05T14:56:54.937Z,102014.09
2023-02-05T14:59:36.209Z,102020.53
2023-02-05T15:02:03.164Z,102021.00
2023-02-05T15:04:54.502Z,102022.94
2023-02-05T15:07:26.261Z,102020.00
2023-02-05T15:10:21.242Z,102019.44
2023-02-05T15:13:09.547Z,102026.59
2023-02-05T15:15:38.055Z,102023.28
2023-02-05T15:18:22.025Z,102025.19
2023-02-05T15:20:52.355Z,102022.91
2023-02-05T15:23:30.798Z,102023.03
2023-02-05T15:26:20.845Z,102030.19
2023-02-05T15:28:57.996Z,102028.63
2023-02-05T15:31:34.276Z,102026.47
2023-02-05T15:34:30.997Z,102033.38
2023-02-05T15:37:10.728Z,102037.75
2023-02-05T15:39:43.258Z,102052.25
2023-02-05T15:42:17.308Z,102045.03
2023-02-05T15:44:44.241Z,102042.03
2023-02-05T15:47:37.622Z,102044.25
2023-02-05T15:50:05.235Z,102049.03
2023-02-05T15:52:33.114Z,102046.00
2023-02-05T15:55:11.538Z,102048.59
2023-02-05T15:57:39.452Z,102061.22
2023-02-05T16:00:10.341Z,102059.38
2023-02-05T16:02:39.951Z,102072.44
2023-02-05T16:05:23.118Z,102071.56
2023-02-05T16:07:57.118Z,102075.31
2023-02-05T16:10:30.179Z,102075.75
2023-02-05T16:13:21.032Z,102074.06
2023-02-05T16:16:01.084Z,102078.34
2023-02-05T16:18:38.369Z,102084.75
2023-02-05T16:21:30.400Z,102087.53
2023-02-05T16:24:04.317Z,102095.34
2023-02-05T16:26:46.904Z,102095.75
2023-02-05T16:29:47.998Z,102096.94
2023-02-05T16:32:39.375Z,102107.75
2023-02-05T16:35:35.460Z,102108.34
2023-02-05T16:38:08.793Z,102119.75
2023-02-05T16:40:43.375Z,102115.34
2023-02-05T16:43:25.315Z,102115.22
2023-02-05T16:46:13.990Z,102125.94
2023-02-05T16:48:54.022Z,102121.41
2023-02-05T16:51:33.965Z,102126.28
2023-02-05T16:54:27.497Z,102145.28
2023-02-05T16:57:16.586Z,102147.88
2023-02-05T17:00:13.398Z,102147.44
2023-02-05T17:02:42.065Z,102159.63
2023-02-05T17:05:38.382Z,102170.47
2023-02-05T17:08:09.923Z,102167.88
2023-02-05T17:10:59.451Z,102166.06
2023-02-05T17:13:46.940Z,102170.47
2023-02-05T17:16:31.850Z,102177.56
2023-02-05T17:19:04.779Z,102184.13
2023-02-05T17:21:36.631Z,102178.75
2023-02-05T17:24:09.015Z,102179.53
2023-02-05T17:26:40.904Z,102189.66
2023-02-05T17:29:15.039Z,102187.63
2023-02-05T17:31:44.072Z,102179.59
2023-02-05T17:34:11.755Z,102185.81
2023-02-05T17:36:38.654Z,102182.84
2023-02-05T17:39:05.582Z,102196.31
2023-02-05T17:41:55.410Z,102194.59
2023-02-05T17:44:22.459Z,102191.22
2023-02-05T17:46:49.626Z,102203.38
2023-02-05T17:49:16.569Z,102198.19
2023-02-05T17:51:43.867Z,102196.25
2023-02-05T17:54:23.234Z,102197.66
2023-02-05T17:56:51.176Z,102200.66
2023-02-05T17:59:24.138Z,102211.72
2023-02-05T18:01:52.285Z,102217.88
2023-02-05T18:04:19.561Z,102216.91
2023-02-05T18:06:49.881Z,102220.00
2023-02-05T18:09:18.501Z,102216.19
2023-02-05T18:11:49.935Z,102217.59
2023-02-05T18:14:17.017Z,102217.94
2023-02-05T18:16:45.367Z,102212.97
2023-02-05T18:19:13.730Z,102212.38
2023-02-05T18:21:47.184Z,102218.34
2023-02-05T18:24:14.204Z,102218.06
2023-02-05T18:26:43.958Z,102221.25
2023-02-05T18:29:10.860Z,102223.81
2023-02-05T18:31:42.509Z,102233.84
2023-02-05T18:34:12.431Z,102232.16
2023-02-05T18:36:39.353Z,102243.50
2023-02-05T18:39:06.310Z,102243.09
2023-02-05T18:41:36.672Z,102261.97
2023-02-05T18:44:03.899Z,102263.22
2023-02-05T18:46:31.040Z,102257.78
2023-02-05T18:48:58.020Z,102265.47
2023-02-05T18:51:25.154Z,102260.56
2023-02-05T18:53:55.284Z,102264.31
2023-02-05T18:56:26.022Z,102272.56
2023-02-05T18:59:01.061Z,102280.31
2023-02-05T19:01:30.768Z,102275.41
2023-02-05T19:04:10.897Z,102276.16
2023-02-05T19:06:40.932Z,102276.06
2023-02-05T19:09:10.053Z,102277.19
2023-02-05T19:11:41.431Z,102277.66
2023-02-05T19:14:12.154Z,102292.47
2023-02-05T19:16:41.546Z,102296.28
2023-02-05T19:19:16.520Z,102289.91
2023-02-05T19:21:45.002Z,102295.97
2023-02-05T19:24:13.682Z,102297.97
2023-02-05T19:26:44.721Z,102306.41
2023-02-05T19:29:18.234Z,102296.47
2023-02-05T19:31:45.702Z,102295.06
2023-02-05T19:34:16.834Z,102299.44
2023-02-05T19:36:46.987Z,102301.38
2023-02-05T19:39:14.722Z,102305.94
2023-02-05T19:41:45.921Z,102306.47
2023-02-05T19:44:13.349Z,102298.09
2023-02-05T19:46:48.620Z,102300.13
2023-02-05T19:49:21.379Z,102301.91
2023-02-05T19:51:55.065Z,102319.63
2023-02-05T19:54:23.421Z,102321.41
2023-02-05T19:56:50.712Z,102327.69
2023-02-05T19:59:18.521Z,102333.41
2023-02-05T20:01:46.617Z,102338.28
2023-02-05T20:04:22.264Z,102329.16
2023-02-05T20:06:49.491Z,102323.22
2023-02-05T20:09:17.738Z,102320.84
2023-02-05T20:11:48.219Z,102325.94
2023-02-05T20:14:17.368Z,102336.72
2023-02-05T20:16:47.464Z,102334.53
2023-02-05T20:19:16.988Z,102332.81
2023-02-05T20:21:45.404Z,102344.38
2023-02-05T20:24:12.771Z,102335.59
2023-02-05T20:26:39.992Z,102339.47
2023-02-05T20:29:25.767Z,102344.78
2023-02-05T20:31:53.398Z,102345.06
2023-02-05T20:34:26.285Z,102342.28
2023-02-05T20:36:56.159Z,102335.97
2023-02-05T20:39:25.273Z,102328.75
2023-02-05T20:41:52.477Z,102330.25
2023-02-05T20:44:19.667Z,102338.44
2023-02-05T20:46:46.719Z,102346.31
2023-02-05T20:49:15.016Z,102350.44
2023-02-05T20:51:42.777Z,102348.97
2023-02-05T20:54:10.393Z,102357.59
2023-02-05T20:56:38.078Z,102364.22
2023-02-05T20:59:07.578Z,102375.78
2023-02-05T21:01:40.317Z,102368.78
2023-02-05T21:04:09.958Z,102373.78
2023-02-05T21:06:39.832Z,102365.31
2023-02-05T21:09:09.002Z,102363.94
2023-02-05T21:11:36.615Z,102370.75
2023-02-05T21:14:04.400Z,102367.59
2023-02-05T21:16:33.652Z,102380.28
2023-02-05T21:19:00.607Z,102387.06
2023-02-05T21:21:31.096Z,102390.81
2023-02-05T21:24:02.030Z,102398.81
2023-02-05T21:26:35.864Z,102406.28
2023-02-05T21:29:12.417Z,102407.22
2023-02-05T21:31:44.685Z,102421.03
2023-02-05T21:34:16.116Z,102416.75
2023-02-05T21:36:43.285Z,102430.03
2023-02-05T21:39:20.098Z,102425.25
2023-02-05T21:41:47.629Z,102423.91
2023-02-05T21:44:15.547Z,102421.78
2023-02-05T21:46:43.097Z,102438.09
2023-02-05T21:49:11.692Z,102431.25
2023-02-05T21:51:39.911Z,102439.38
2023-02-05T21:54:07.025Z,102436.41
2023-02-05T21:56:42.536Z,102439.94
2023-02-05T21:59:11.533Z,102443.47
2023-02-05T22:01:39.770Z,102445.88
2023-02-05T22:04:15.825Z,102446.53
2023-02-05T22:06:43.835Z,102456.56
2023-02-05T22:09:15.589Z,102450.25
2023-02-05T22:11:43.997Z,102457.34
2023-02-05T22:14:12.613Z,102454.56
2023-02-05T22:16:40.127Z,102465.34
2023-02-05T22:19:07.844Z,102470.66
2023-02-05T22:21:42.097Z,102463.44
2023-02-05T22:24:17.045Z,102462.28
2023-02-05T22:26:46.804Z,102467.94
2023-02-05T22:29:19.524Z,102479.84
2023-02-05T22:31:51.440Z,102468.25
2023-02-05T22:34:18.903Z,102468.28
2023-02-05T22:36:45.963Z,102489.94
2023-02-05T22:39:12.888Z,102496.31
2023-02-05T22:41:49.203Z,102500.44
2023-02-05T22:44:16.302Z,102503.81
2023-02-05T22:46:44.450Z,102504.19
2023-02-05T22:49:15.343Z,102502.41
2023-02-05T22:51:43.146Z,102499.00
2023-02-05T22:54:13.496Z,102500.34
2023-02-05T22:56:40.369Z,102514.50
2023-02-05T22:59:07.938Z,102506.81
2023-02-05T23:01:38.239Z,102520.66
2023-02-05T23:04:08.082Z,102517.00
2023-02-05T23:06:38.674Z,102520.69
2023-02-05T23:09:13.576Z,102523.31
2023-02-05T23:11:41.941Z,102522.25
2023-02-05T23:14:10.627Z,102524.06
2023-02-05T23:16:41.420Z,102521.69
2023-02-05T23:19:13.938Z,102515.50
2023-02-05T23:21:40.915Z,102521.22
2023-02-05T23:24:09.181Z,102525.63
2023-02-05T23:26:41.812Z,102529.00
2023-02-05T23:29:11.672Z,102532.25
2023-02-05T23:31:38.721Z,102529.41
2023-02-05T23:34:06.200Z,102526.09
2023-02-05T23:36:33.522Z,102535.09
2023-02-05T23:39:00.510Z,102532.47
2023-02-05T23:41:37.099Z,102536.09
2023-02-05T23:44:22.055Z,102534.56
2023-02-05T23:46:50.688Z,102541.44
2023-02-05T23:49:21.825Z,102550.16
2023-02-05T23:51:51.070Z,102549.38
2023-02-05T23:54:18.099Z,102545.84
2023-02-05T23:56:45.611Z,102542.44
2023-02-05T23:59:14.288Z,102549.31
